Terminal Aerodrome Forecast
Issued by NWS Atlanta, GA

Home | Current Version | Previous Version | Text Only | Print | Product List | Glossary On
Versions: 1 2 3 4 5 6 7 8 9 10 11 12 13 14 15 16 17 18 19 20 21 22 23 24 25 26 27 28 29 30 31 32 33 34 35 36 37 38 39
000
FTUS42 KFFC 231435 AAC
TAFAHN
TAF AMD
KAHN 231435Z 2315/2412 08005KT 5SM -SHRA BR FEW004 BKN006
     FM231630 VRB03KT P6SM -SHRA OVC020
     FM231800 19004KT P6SM SHRA BKN030
      TEMPO 2319/2322 4SM -TSRA OVC025CB
     FM240100 20002KT P6SM BKN040
     FM240600 00000KT P6SM BKN035=

USA.gov is the U.S. government's official web portal to all federal, state and local government web resources and services.